Huvudsida
METAR-TAF:

METAR-TAF

Flygplatser :

Emmens flygbas

Emmen, Schweiz

latitud: 47-05-32N, longitud: 8-18-16E, höjd: 426 m

Aktuellt väderrapport

Denna rapport gjordes för 22 minuter sedan, klockan 05:50 UTC
Vind 2 kt från väst/sydväst
Temperatur 0°C
Fuktighet 100%
Tryck 1011 hPa
Sikt 10 km eller mer

METAR: LSME 160550Z AUTO 25002KT 9999NDV NCD 00/M00 Q1011 RMK

Tid: 07:12 (06:12 UTC)


TAF: saknas

Aktuella väderrapporter och prognoser från 4000 flygplatser (METAR- och TAF-rapporter).

De tillgängliga stationerna syns som gula och röda prickar på kartan.

För musen över prickarna för att se namnen på stationerna.

Klicka sedan för att få väderrapporter och prognoser.

För att ändra kartan: Klicka på de gröna knapparna med ett svart kors på för att zooma in; den gröna knappen med ett streck på för att zooma ut; eller på de gröna pilarna för angränsande kartor.


METAR-TAF: